Time;durP1;ratioP1;P1;durP2;ratioP2;P2;SDS_P1;SDS_P2;PMS_P1;PMS_P2;Temp;Humidity;BMP_temperature;BMP_pressure;BME280_temperature;BME280_humidity;BME280_pressure;Samples;Min_cycle;Max_cycle;Signal;HPM_P1;HPM_P2
2022/08/21 00:01:14;;;;;;;11.30;8.70;;;;;;;19.26;58.74;101267.53;4942037;29;20404;-69
2022/08/21 00:03:40;;;;;;;10.90;8.10;;;;;;;19.33;58.66;101269.16;4925012;29;20173;-69
2022/08/21 00:06:06;;;;;;;8.93;7.63;;;;;;;19.59;58.19;101261.63;4941879;29;20461;-69
2022/08/21 00:08:31;;;;;;;8.00;7.27;;;;;;;19.48;58.35;101261.84;4941620;29;20178;-70
2022/08/21 00:10:57;;;;;;;7.73;6.90;;;;;;;19.52;58.37;101259.13;4941633;29;20166;-68
2022/08/21 00:13:22;;;;;;;8.50;7.57;;;;;;;19.33;58.41;101252.41;4941853;29;20534;-70
2022/08/21 00:15:48;;;;;;;13.47;11.80;;;;;;;19.45;58.23;101254.84;4941531;29;20425;-69
2022/08/21 00:18:15;;;;;;;16.73;14.70;;;;;;;19.37;58.68;101251.47;4941407;29;20212;-70
2022/08/21 00:20:41;;;;;;;13.73;12.13;;;;;;;19.33;58.85;101253.28;4941611;29;20396;-70
2022/08/21 00:23:07;;;;;;;12.50;10.53;;;;;;;19.10;59.50;101243.13;4941375;29;20407;-71
2022/08/21 00:25:32;;;;;;;15.13;11.90;;;;;;;19.06;59.73;101249.38;4941175;29;20468;-70
2022/08/21 00:27:58;;;;;;;12.50;9.90;;;;;;;19.28;59.18;101244.59;4941890;29;20671;-68
2022/08/21 00:30:25;;;;;;;12.37;10.13;;;;;;;19.11;59.62;101238.75;4941314;29;20458;-67
2022/08/21 00:32:52;;;;;;;12.20;10.60;;;;;;;19.35;59.08;101238.28;4940847;29;20198;-67
2022/08/21 00:35:20;;;;;;;12.77;10.27;;;;;;;19.17;59.51;101228.94;4940438;29;20415;-69
2022/08/21 00:37:45;;;;;;;8.20;7.23;;;;;;;18.89;59.90;101239.13;4940894;29;20413;-69
2022/08/21 00:40:16;;;;;;;9.73;8.20;;;;;;;19.25;59.54;101235.84;4941066;29;20417;-70
2022/08/21 00:42:43;;;;;;;9.70;8.53;;;;;;;19.07;59.78;101237.06;4941614;29;20177;-70
2022/08/21 00:45:09;;;;;;;10.63;7.40;;;;;;;19.27;59.52;101242.84;4924694;29;20674;-70
2022/08/21 00:47:35;;;;;;;7.40;6.70;;;;;;;19.35;59.42;101227.69;4924318;29;20472;-69
2022/08/21 00:50:00;;;;;;;11.30;7.20;;;;;;;19.56;59.18;101224.69;4925054;29;20384;-70
2022/08/21 00:52:28;;;;;;;11.00;7.40;;;;;;;19.56;59.24;101224.69;4940969;29;20181;-70
2022/08/21 00:54:55;;;;;;;8.07;7.07;;;;;;;19.57;59.33;101232.56;4924589;29;20177;-70
2022/08/21 00:57:26;;;;;;;7.80;6.77;;;;;;;19.63;59.54;101224.53;4925010;29;20381;-69
2022/08/21 00:59:54;;;;;;;7.07;6.27;;;;;;;19.79;60.22;101230.34;4924458;29;20417;-70
2022/08/21 01:02:20;;;;;;;8.70;7.63;;;;;;;19.54;60.70;101235.28;4924328;29;20435;-69
2022/08/21 01:04:46;;;;;;;8.27;6.63;;;;;;;19.81;60.89;101233.88;4941204;29;20443;-69
2022/08/21 01:07:12;;;;;;;7.03;6.13;;;;;;;19.94;61.15;101230.97;4940744;29;20833;-70
2022/08/21 01:09:41;;;;;;;8.93;7.13;;;;;;;19.70;61.79;101233.22;4924377;29;20417;-69
2022/08/21 01:12:07;;;;;;;8.20;6.87;;;;;;;19.60;61.85;101237.78;4941205;29;20479;-69
2022/08/21 01:14:33;;;;;;;7.33;6.47;;;;;;;19.45;63.03;101238.09;4924072;29;20504;-70
2022/08/21 01:16:59;;;;;;;8.07;6.20;;;;;;;19.40;62.88;101232.88;4940804;29;20482;-70
2022/08/21 01:19:26;;;;;;;9.07;6.70;;;;;;;19.54;62.48;101235.28;4924768;29;20264;-69
2022/08/21 01:21:53;;;;;;;7.20;6.17;;;;;;;19.48;62.73;101238.03;4940740;29;20448;-69
2022/08/21 01:24:18;;;;;;;7.73;6.50;;;;;;;19.52;62.83;101240.59;4940278;29;20472;-69
2022/08/21 01:26:44;;;;;;;7.37;6.13;;;;;;;19.52;62.57;101232.69;4941173;29;20467;-70
2022/08/21 01:29:28;;;;;;;7.10;5.90;;;;;;;19.35;63.15;101237.41;4940734;29;20185;-70
2022/08/21 01:31:53;;;;;;;7.33;6.00;;;;;;;19.11;64.02;101244.88;4940728;29;20177;-70
2022/08/21 01:34:19;;;;;;;9.43;5.93;;;;;;;19.02;64.34;101239.75;4940384;29;20475;-70
2022/08/21 01:36:45;;;;;;;7.90;6.70;;;;;;;19.26;63.71;101237.59;4940619;29;20439;-70
2022/08/21 01:39:11;;;;;;;7.80;6.80;;;;;;;19.37;62.99;101238.25;4940994;29;20221;-70
2022/08/21 01:41:37;;;;;;;6.53;5.83;;;;;;;19.30;63.59;101241.91;4940620;29;20437;-70
2022/08/21 01:44:03;;;;;;;7.50;6.70;;;;;;;19.21;63.91;101240.28;4940168;29;20432;-70
2022/08/21 01:46:28;;;;;;;8.83;6.60;;;;;;;19.22;63.58;101231.47;4941130;29;20194;-70
2022/08/21 01:48:54;;;;;;;6.27;5.67;;;;;;;19.18;63.40;101228.00;4944237;29;20404;-69
2022/08/21 01:51:19;;;;;;;7.80;6.27;;;;;;;19.14;63.11;101231.59;4944254;29;20180;-69
2022/08/21 01:53:44;;;;;;;7.27;6.57;;;;;;;19.11;63.73;101223.75;4944509;29;20597;-68
2022/08/21 01:56:12;;;;;;;8.20;7.40;;;;;;;19.29;62.83;101224.31;4944044;29;20235;-69
2022/08/21 01:58:37;;;;;;;8.57;6.30;;;;;;;19.08;63.30;101228.19;4944091;29;20212;-71
2022/08/21 02:01:03;;;;;;;7.07;6.37;;;;;;;18.94;63.68;101228.47;4944390;29;20482;-70
2022/08/21 02:03:29;;;;;;;7.57;6.77;;;;;;;19.10;62.93;101222.00;4943891;29;20182;-71
2022/08/21 02:05:55;;;;;;;11.27;7.50;;;;;;;19.15;62.52;101224.56;4943905;29;20701;-70
2022/08/21 02:08:22;;;;;;;6.33;5.73;;;;;;;19.10;62.63;101224.63;4944315;29;20504;-69
2022/08/21 02:10:48;;;;;;;10.27;6.60;;;;;;;19.02;62.24;101224.78;4943921;29;20313;-70
2022/08/21 02:13:14;;;;;;;6.30;5.80;;;;;;;19.00;61.66;101220.44;4943568;29;20537;-70
2022/08/21 02:15:39;;;;;;;7.17;6.27;;;;;;;19.38;61.10;101226.78;4944359;29;20853;-70
2022/08/21 02:18:06;;;;;;;8.93;5.70;;;;;;;19.14;61.52;101217.53;4943620;29;20268;-70
2022/08/21 02:20:34;;;;;;;8.33;5.57;;;;;;;19.07;61.47;101224.69;4943683;29;20214;-68
2022/08/21 02:23:00;;;;;;;8.03;6.10;;;;;;;18.99;61.14;101218.69;4943715;29;20598;-69
2022/08/21 02:25:26;;;;;;;7.60;5.10;;;;;;;18.68;61.66;101221.81;4943216;29;20551;-70
2022/08/21 02:27:52;;;;;;;6.47;5.83;;;;;;;18.98;61.34;101216.94;4943465;29;20191;-69
2022/08/21 02:30:21;;;;;;;7.50;5.73;;;;;;;18.76;61.59;101222.56;4943750;29;20388;-69
2022/08/21 02:32:47;;;;;;;6.27;5.30;;;;;;;18.78;61.98;101220.78;4943153;29;20237;-69
2022/08/21 02:35:12;;;;;;;8.87;5.90;;;;;;;18.94;61.43;101221.41;4943392;29;20416;-69
2022/08/21 02:37:52;;;;;;;6.00;5.50;;;;;;;18.65;62.64;101220.09;4927396;29;20495;-68
2022/08/21 02:40:21;;;;;;;8.80;5.80;;;;;;;18.45;62.93;101215.13;4943308;29;20272;-69
2022/08/21 02:42:46;;;;;;;6.67;5.70;;;;;;;18.57;62.86;101215.84;4926738;29;20644;-69
2022/08/21 02:45:13;;;;;;;6.77;5.47;;;;;;;18.65;62.78;101224.50;4943210;29;20407;-69
2022/08/21 02:47:39;;;;;;;5.60;4.80;;;;;;;18.37;63.43;101224.06;4943302;29;20221;-69
2022/08/21 02:50:07;;;;;;;5.80;5.30;;;;;;;18.51;63.29;101219.47;4943577;29;20392;-71
2022/08/21 02:52:33;;;;;;;9.30;5.63;;;;;;;18.39;62.85;101212.59;4943062;29;20181;-70
2022/08/21 02:54:58;;;;;;;6.20;5.27;;;;;;;18.40;63.31;101214.34;4926403;29;20475;-69
2022/08/21 02:57:24;;;;;;;8.03;6.07;;;;;;;18.76;62.56;101211.13;4943868;29;20479;-70
2022/08/21 02:59:49;;;;;;;8.27;5.70;;;;;;;18.61;62.94;101206.97;4942025;29;20205;-70
2022/08/21 03:02:14;;;;;;;7.33;5.63;;;;;;;18.65;62.59;101206.88;4942903;29;20256;-70
2022/08/21 03:04:40;;;;;;;6.57;5.87;;;;;;;18.66;61.97;101205.13;4943236;29;20316;-69
2022/08/21 03:07:05;;;;;;;6.43;5.80;;;;;;;18.55;62.53;101213.22;4942902;29;20209;-69
2022/08/21 03:09:31;;;;;;;7.87;5.93;;;;;;;18.51;62.51;101207.13;4942755;29;20233;-70
2022/08/21 03:11:57;;;;;;;6.20;5.60;;;;;;;18.61;62.07;101212.25;4943111;29;20261;-69
2022/08/21 03:14:22;;;;;;;6.13;5.23;;;;;;;17.87;63.96;101203.59;4942633;29;20188;-69
2022/08/21 03:16:48;;;;;;;9.37;5.83;;;;;;;17.57;64.97;101205.75;4942839;29;20471;-69
2022/08/21 03:19:13;;;;;;;6.17;5.53;;;;;;;17.96;64.15;101202.66;4943064;29;20182;-69
2022/08/21 03:21:38;;;;;;;5.30;4.80;;;;;;;18.35;63.24;101211.75;4942741;29;20174;-70
2022/08/21 03:24:04;;;;;;;6.83;5.50;;;;;;;18.25;63.01;101202.25;4942290;29;20230;-70
2022/08/21 03:26:30;;;;;;;7.90;5.30;;;;;;;18.28;62.66;101202.19;4943035;29;20333;-70
2022/08/21 03:28:57;;;;;;;7.93;5.80;;;;;;;18.41;62.52;101208.16;4925856;29;20562;-70
2022/08/21 03:31:23;;;;;;;7.30;5.50;;;;;;;18.53;62.26;101204.44;4942407;29;20173;-69
2022/08/21 03:33:48;;;;;;;6.30;5.60;;;;;;;18.38;62.53;101205.56;4926083;29;20427;-70
2022/08/21 03:36:15;;;;;;;5.70;5.20;;;;;;;18.33;62.92;101203.00;4942341;29;20244;-69
2022/08/21 03:38:40;;;;;;;9.87;5.20;;;;;;;18.27;62.76;101197.81;4942408;29;20182;-69
2022/08/21 03:41:07;;;;;;;6.50;5.70;;;;;;;18.29;62.65;101203.06;4942631;29;20553;-69
2022/08/21 03:43:32;;;;;;;6.30;5.70;;;;;;;18.29;63.03;101196.03;4942114;29;20188;-69
2022/08/21 03:46:01;;;;;;;7.20;5.47;;;;;;;18.27;63.03;101200.44;4942227;29;20469;-69
2022/08/21 03:48:26;;;;;;;7.13;5.43;;;;;;;18.44;62.87;101199.31;4942559;29;20240;-70
2022/08/21 03:50:52;;;;;;;7.20;5.60;;;;;;;18.26;63.27;101203.13;4942092;29;20504;-69
2022/08/21 03:53:18;;;;;;;8.33;5.70;;;;;;;18.35;62.99;101200.34;4942262;29;20197;-69
2022/08/21 03:55:46;;;;;;;6.50;5.90;;;;;;;18.37;63.08;101203.81;4942217;29;20417;-70
2022/08/21 03:58:11;;;;;;;14.00;6.53;;;;;;;18.19;63.21;101199.69;4941837;29;20463;-69
2022/08/21 04:00:37;;;;;;;10.07;6.07;;;;;;;18.12;63.98;101204.19;4941989;29;20406;-70
2022/08/21 04:03:03;;;;;;;8.67;6.10;;;;;;;18.06;63.88;101196.34;4942064;29;20182;-71
2022/08/21 04:05:29;;;;;;;9.23;5.90;;;;;;;18.10;64.08;101203.31;4941645;29;20843;-70
2022/08/21 04:07:57;;;;;;;5.90;5.40;;;;;;;18.04;64.09;101206.06;4941708;29;20170;-70
2022/08/21 04:10:24;;;;;;;9.40;6.10;;;;;;;18.18;63.94;101200.56;4942164;29;20630;-70
2022/08/21 04:12:49;;;;;;;7.50;6.50;;;;;;;18.14;64.01;101197.13;4924880;29;20396;-71
2022/08/21 04:15:15;;;;;;;6.17;5.30;;;;;;;18.25;64.28;101210.16;4941692;29;20430;-70
2022/08/21 04:17:40;;;;;;;7.50;5.93;;;;;;;18.41;63.48;101208.16;4942259;29;20200;-71
2022/08/21 04:20:06;;;;;;;6.63;6.03;;;;;;;18.30;63.59;101207.44;4941550;29;20317;-70
2022/08/21 04:22:31;;;;;;;6.17;5.57;;;;;;;18.27;63.80;101197.81;4941327;29;20571;-70
2022/08/21 04:24:57;;;;;;;7.40;6.30;;;;;;;18.52;63.29;101202.69;4941415;29;20237;-70
2022/08/21 04:27:22;;;;;;;7.40;6.37;;;;;;;18.53;63.13;101204.44;4941343;29;20256;-70
2022/08/21 04:29:47;;;;;;;10.43;6.43;;;;;;;18.34;64.05;101201.22;4941650;29;20174;-70
2022/08/21 04:32:13;;;;;;;7.00;6.30;;;;;;;18.84;62.96;101201.31;4941187;29;20170;-70
2022/08/21 04:34:38;;;;;;;7.33;5.93;;;;;;;18.81;62.66;101201.34;4941151;29;20566;-70
2022/08/21 04:37:04;;;;;;;6.63;6.00;;;;;;;18.55;63.37;101204.41;4941819;29;20198;-70
2022/08/21 04:39:29;;;;;;;10.47;6.07;;;;;;;18.81;62.89;101212.78;4941406;29;20632;-70
2022/08/21 04:41:54;;;;;;;7.20;6.50;;;;;;;19.00;62.63;101212.50;4941165;29;20170;-70
2022/08/21 04:44:20;;;;;;;7.97;6.33;;;;;;;18.88;62.95;101208.31;4941505;29;20181;-70
2022/08/21 04:46:45;;;;;;;11.33;6.70;;;;;;;18.99;62.71;101214.25;4941009;29;20202;-69
2022/08/21 04:49:10;;;;;;;7.83;6.40;;;;;;;18.99;62.56;101208.97;4941146;29;20217;-69
2022/08/21 04:51:37;;;;;;;7.73;6.47;;;;;;;19.14;62.14;101218.41;4941582;29;20233;-69
2022/08/21 04:54:09;;;;;;;7.33;6.30;;;;;;;19.13;62.67;101215.78;4924475;29;20185;-71
2022/08/21 04:57:05;;;;;;;7.30;6.40;;;;;;;18.94;63.20;101218.78;4941114;29;20387;-70
2022/08/21 04:59:38;;;;;;;9.50;6.67;;;;;;;19.07;63.08;101215.91;4939742;29;20735;-70
2022/08/21 05:02:05;;;;;;;8.30;6.97;;;;;;;19.01;63.41;101222.16;4941061;29;20669;-70
2022/08/21 05:04:33;;;;;;;7.20;6.43;;;;;;;19.04;63.11;101223.88;4940834;29;20392;-70
2022/08/21 05:07:02;;;;;;;9.60;6.70;;;;;;;19.42;62.30;101224.97;4924413;29;20468;-70
2022/08/21 05:09:28;;;;;;;6.60;5.93;;;;;;;19.22;62.62;101220.03;4941234;29;20421;-70
2022/08/21 05:11:54;;;;;;;8.53;6.60;;;;;;;19.25;62.94;101230.56;4940896;29;20421;-70
2022/08/21 05:14:19;;;;;;;6.97;6.27;;;;;;;19.72;61.60;101230.53;4924234;29;20174;-70
2022/08/21 05:16:45;;;;;;;8.23;7.43;;;;;;;19.28;62.26;101226.09;4941284;29;20409;-69
2022/08/21 05:19:11;;;;;;;11.60;7.00;;;;;;;19.40;62.36;101229.38;4940802;29;20180;-69
2022/08/21 05:21:40;;;;;;;6.40;5.70;;;;;;;19.99;60.02;101221.16;4940293;29;20404;-70
2022/08/21 05:24:05;;;;;;;7.30;5.77;;;;;;;19.78;60.83;101231.28;4940616;29;20232;-72
2022/08/21 05:26:31;;;;;;;8.57;6.40;;;;;;;20.13;60.12;101219.09;4940749;29;20435;-70
2022/08/21 05:28:56;;;;;;;6.17;5.57;;;;;;;19.64;60.01;101228.03;4940813;29;20185;-70
2022/08/21 05:31:22;;;;;;;7.00;5.77;;;;;;;19.32;60.32;101230.41;4940674;29;20456;-70
2022/08/21 05:33:47;;;;;;;5.93;5.43;;;;;;;20.17;58.12;101222.53;4940591;29;20237;-70
2022/08/21 05:36:13;;;;;;;6.67;5.40;;;;;;;20.54;57.12;101224.31;4939743;29;20170;-72
2022/08/21 05:38:38;;;;;;;5.77;5.20;;;;;;;20.60;56.28;101224.16;4940366;29;20174;-71
2022/08/21 05:41:04;;;;;;;6.10;5.50;;;;;;;20.43;57.02;101229.88;4940589;29;20185;-73
2022/08/21 05:43:29;;;;;;;6.03;4.80;;;;;;;20.21;57.56;101226.84;4940769;29;20256;-71
2022/08/21 05:45:54;;;;;;;7.50;5.50;;;;;;;20.55;55.71;101228.69;4940328;29;20360;-70
2022/08/21 05:48:23;;;;;;;6.07;4.80;;;;;;;20.73;55.34;101227.41;4940393;29;20180;-70
2022/08/21 05:50:50;;;;;;;7.13;4.70;;;;;;;20.76;55.45;101226.47;4941217;29;20193;-70
2022/08/21 05:53:16;;;;;;;8.20;4.70;;;;;;;20.33;55.29;101228.34;4940301;29;20426;-71
2022/08/21 05:55:42;;;;;;;5.07;4.57;;;;;;;20.35;56.33;101223.88;4940373;29;20841;-71
2022/08/21 05:58:08;;;;;;;4.67;4.27;;;;;;;20.63;54.52;101226.72;4940699;29;20402;-70
2022/08/21 06:00:33;;;;;;;6.83;4.53;;;;;;;21.73;51.98;101221.22;4940316;29;20264;-70
2022/08/21 06:02:59;;;;;;;7.07;4.87;;;;;;;22.73;49.63;101224.34;4940406;29;20174;-71
2022/08/21 06:05:26;;;;;;;4.63;4.00;;;;;;;23.36;46.09;101224.84;4940836;29;20604;-70
2022/08/21 06:07:51;;;;;;;5.90;3.83;;;;;;;22.46;48.55;101222.56;4940229;29;20782;-69
2022/08/21 06:10:17;;;;;;;7.07;4.00;;;;;;;22.37;48.56;101220.19;4940240;29;20421;-69
2022/08/21 06:12:42;;;;;;;4.53;3.93;;;;;;;21.66;49.13;101225.84;4940698;29;20184;-74
2022/08/21 06:15:08;;;;;;;5.67;4.20;;;;;;;20.80;51.61;101234.28;4940265;29;20170;-73
2022/08/21 06:17:34;;;;;;;5.50;4.30;;;;;;;21.31;51.51;101234.75;4940292;29;20535;-73
2022/08/21 06:19:59;;;;;;;6.07;3.77;;;;;;;21.80;49.88;101224.56;4940721;29;20441;-73
2022/08/21 06:22:25;;;;;;;6.50;4.20;;;;;;;21.57;50.33;101220.78;4940127;29;20174;-73
2022/08/21 06:24:50;;;;;;;6.03;4.30;;;;;;;22.58;48.34;101221.25;4940097;29;20555;-73
2022/08/21 06:27:17;;;;;;;6.73;4.27;;;;;;;24.91;43.01;101202.84;4940640;29;20508;-73
2022/08/21 06:29:42;;;;;;;6.80;3.80;;;;;;;24.45;43.78;101213.59;4940055;29;20193;-70
2022/08/21 06:32:10;;;;;;;7.70;4.27;;;;;;;23.26;46.31;101218.09;4940110;29;20807;-70
2022/08/21 06:34:37;;;;;;;7.23;4.07;;;;;;;23.35;46.39;101218.69;4942278;29;20225;-70
2022/08/21 06:37:03;;;;;;;6.77;4.40;;;;;;;26.05;40.92;101209.28;4943579;29;20423;-70
2022/08/21 06:39:29;;;;;;;9.17;4.33;;;;;;;27.11;38.91;101204.06;4943415;29;20512;-70
2022/08/21 06:41:54;;;;;;;6.73;4.27;;;;;;;27.17;38.41;101204.63;4943746;29;20261;-70
2022/08/21 06:44:20;;;;;;;4.73;3.90;;;;;;;27.08;38.87;101209.59;4943121;29;20177;-70
2022/08/21 06:46:45;;;;;;;4.07;3.50;;;;;;;25.70;40.47;101208.25;4943251;29;20209;-70
2022/08/21 06:49:11;;;;;;;6.90;4.10;;;;;;;27.61;37.44;101213.03;4944095;29;20177;-70
2022/08/21 06:51:36;;;;;;;9.67;3.67;;;;;;;28.77;34.97;101202.03;4943285;29;20174;-69
2022/08/21 06:54:02;;;;;;;5.13;4.00;;;;;;;29.50;34.35;101195.78;4942995;29;20209;-69
2022/08/21 06:56:27;;;;;;;4.43;3.63;;;;;;;29.29;34.31;101195.31;4943717;29;20539;-71
2022/08/21 06:58:53;;;;;;;4.43;3.70;;;;;;;27.86;36.09;101194.66;4943030;29;20173;-72
2022/08/21 07:01:21;;;;;;;5.17;3.70;;;;;;;28.78;34.82;101193.03;4943150;29;20172;-71
2022/08/21 07:03:46;;;;;;;4.87;3.80;;;;;;;30.27;32.07;101192.69;4926792;29;20176;-71
2022/08/21 07:06:11;;;;;;;5.47;4.03;;;;;;;27.99;34.66;101192.13;4943047;29;20541;-69
2022/08/21 07:08:38;;;;;;;10.37;4.00;;;;;;;31.03;30.22;101176.84;4942259;29;20176;-70
2022/08/21 07:11:08;;;;;;;6.57;3.93;;;;;;;29.67;31.83;101175.91;4943220;29;20166;-70
2022/08/21 07:13:34;;;;;;;5.73;3.67;;;;;;;30.11;30.83;101175.81;4942738;29;20453;-69
2022/08/21 07:15:59;;;;;;;6.80;3.70;;;;;;;31.06;29.50;101165.84;4942734;29;20413;-74
2022/08/21 07:18:24;;;;;;;4.17;3.30;;;;;;;30.09;30.36;101165.16;4943160;29;20586;-73
2022/08/21 07:20:50;;;;;;;3.60;3.30;;;;;;;30.96;29.56;101162.03;4942732;29;20181;-73
2022/08/21 07:23:28;;;;;;;4.93;3.30;;;;;;;30.52;29.57;101178.47;4942243;29;20598;-74
2022/08/21 07:25:54;;;;;;;5.80;3.43;;;;;;;31.77;27.41;101162.63;4942470;29;20730;-73
2022/08/21 07:28:20;;;;;;;4.20;3.67;;;;;;;31.73;27.50;101160.16;4942632;29;20413;-70
2022/08/21 07:30:46;;;;;;;4.77;3.30;;;;;;;30.26;29.11;101169.44;4942014;29;20662;-71
2022/08/21 07:33:12;;;;;;;4.73;3.33;;;;;;;31.23;28.61;101165.53;4925420;29;20434;-70
2022/08/21 07:35:38;;;;;;;5.07;3.60;;;;;;;30.16;30.15;101168.31;4942578;29;20189;-72
2022/08/21 07:38:03;;;;;;;6.93;3.67;;;;;;;29.53;31.04;101163.34;4942522;29;20510;-70
2022/08/21 07:40:29;;;;;;;6.50;3.53;;;;;;;30.29;30.94;101161.16;4941955;29;20460;-70
2022/08/21 07:42:54;;;;;;;3.73;3.30;;;;;;;30.16;30.82;101166.50;4942031;29;20170;-70
2022/08/21 07:45:21;;;;;;;7.53;3.60;;;;;;;29.28;32.89;101161.38;4942053;29;20178;-72
2022/08/21 07:47:47;;;;;;;4.20;3.50;;;;;;;31.37;30.05;101150.19;4941179;29;20201;-73
2022/08/21 07:50:13;;;;;;;4.43;3.50;;;;;;;31.67;29.10;101157.91;4941957;29;20682;-72
2022/08/21 07:52:39;;;;;;;5.13;3.17;;;;;;;32.38;27.95;101151.78;4942206;29;20442;-71
2022/08/21 07:55:06;;;;;;;4.30;3.50;;;;;;;31.38;28.97;101160.00;4941575;29;20177;-72
2022/08/21 07:57:31;;;;;;;5.00;3.70;;;;;;;32.74;27.70;101158.91;4941624;29;20822;-71
2022/08/21 07:59:56;;;;;;;5.50;3.43;;;;;;;32.37;27.98;101152.81;4942047;29;20495;-70
2022/08/21 08:02:27;;;;;;;5.27;3.10;;;;;;;32.80;27.92;101149.50;4941819;29;20443;-71
2022/08/21 08:04:53;;;;;;;3.87;3.43;;;;;;;32.38;28.34;101151.78;4941732;29;20170;-70
2022/08/21 08:07:18;;;;;;;4.90;4.00;;;;;;;33.39;26.26;101140.31;4941890;29;20886;-70
2022/08/21 08:09:44;;;;;;;5.07;3.60;;;;;;;32.77;27.36;101146.19;4925057;29;20192;-70
2022/08/21 08:12:09;;;;;;;4.87;3.70;;;;;;;32.57;27.96;101152.13;4941593;29;20170;-68
2022/08/21 08:14:35;;;;;;;6.20;3.50;;;;;;;32.76;27.53;101145.34;4941768;29;20169;-69
2022/08/21 08:17:02;;;;;;;4.60;4.20;;;;;;;31.79;28.76;101152.59;4941444;29;20173;-70
2022/08/21 08:19:27;;;;;;;5.20;3.87;;;;;;;32.98;27.89;101141.78;4941485;29;20184;-71
2022/08/21 08:21:53;;;;;;;5.83;3.60;;;;;;;31.61;30.21;101152.09;4941950;29;20421;-70
2022/08/21 08:24:19;;;;;;;8.17;3.47;;;;;;;31.37;30.32;101147.50;4941262;29;20213;-68
2022/08/21 08:26:44;;;;;;;4.90;3.60;;;;;;;32.80;28.28;101144.09;4941408;29;20204;-69
2022/08/21 08:29:09;;;;;;;4.00;3.40;;;;;;;32.43;28.72;101146.06;4941837;29;20252;-69
2022/08/21 08:31:35;;;;;;;5.50;3.77;;;;;;;33.24;28.43;101147.81;4941479;29;20527;-69
2022/08/21 08:34:00;;;;;;;4.60;3.50;;;;;;;32.82;28.91;101150.22;4941076;29;20198;-70
2022/08/21 08:36:33;;;;;;;5.77;3.60;;;;;;;32.54;29.40;101155.06;4941721;29;20162;-69
2022/08/21 08:39:00;;;;;;;4.93;3.17;;;;;;;31.73;30.02;101151.19;4941246;29;20216;-69
2022/08/21 08:41:26;;;;;;;4.50;3.30;;;;;;;30.60;31.86;101145.66;4940548;29;20493;-69
2022/08/21 08:43:53;;;;;;;7.60;5.70;;;;;;;31.61;30.80;101146.72;4940954;29;20445;-69
2022/08/21 08:46:29;;;;;;;6.07;2.97;;;;;;;31.90;30.23;101148.13;4924384;29;20205;-68
2022/08/21 08:49:02;;;;;;;7.67;4.60;;;;;;;31.77;30.60;101144.59;4941176;29;20413;-69
2022/08/21 08:51:44;;;;;;;8.23;3.43;;;;;;;31.86;30.87;101149.31;4924763;29;20520;-70
2022/08/21 08:54:15;;;;;;;5.87;4.00;;;;;;;33.61;28.57;101133.16;4924359;29;20429;-70
2022/08/21 08:56:41;;;;;;;5.23;3.93;;;;;;;32.69;29.00;101133.22;4923880;29;20417;-70
2022/08/21 08:59:19;;;;;;;6.53;3.60;;;;;;;31.03;31.59;101140.00;4940915;29;20714;-70
2022/08/21 09:01:44;;;;;;;4.43;3.20;;;;;;;31.98;30.41;101141.31;4924326;29;20197;-70
2022/08/21 09:04:12;;;;;;;5.43;3.57;;;;;;;32.24;29.33;101142.06;4940666;29;20453;-70
2022/08/21 09:06:56;;;;;;;6.60;3.40;;;;;;;31.29;31.42;101141.81;4924310;29;20461;-69
2022/08/21 09:10:02;;;;;;;3.60;3.30;;;;;;;32.12;29.62;101135.72;4940762;29;20497;-69
2022/08/21 09:12:45;;;;;;;5.10;3.70;;;;;;;31.61;30.51;101138.63;4940166;29;20410;-69
2022/08/21 09:15:33;;;;;;;4.13;3.33;;;;;;;32.60;29.49;101126.72;4940751;29;20437;-69
2022/08/21 09:18:11;;;;;;;7.03;3.60;;;;;;;31.31;30.76;101134.47;4924260;29;20417;-68
2022/08/21 09:21:13;;;;;;;5.80;3.60;;;;;;;32.05;29.89;101131.78;4940637;29;20485;-68
2022/08/21 09:24:29;;;;;;;6.70;3.87;;;;;;;32.11;29.65;101125.94;4894615;29;20851;-69
2022/08/21 09:27:00;;;;;;;6.77;3.90;;;;;;;32.39;29.18;101127.41;4882455;29;20468;-69
2022/08/21 09:29:29;;;;;;;7.07;5.40;;;;;;;32.65;29.19;101127.25;4936713;29;20877;-70
2022/08/21 09:31:55;;;;;;;4.63;3.60;;;;;;;31.73;30.47;101125.13;4924295;29;20512;-69
2022/08/21 09:34:29;;;;;;;6.03;3.40;;;;;;;32.12;30.10;101118.69;4923657;29;20874;-69
2022/08/21 09:36:54;;;;;;;7.17;3.77;;;;;;;31.89;30.09;101122.16;4940273;29;20512;-69
2022/08/21 09:39:29;;;;;;;8.40;3.83;;;;;;;32.82;29.17;101119.69;4940410;29;20496;-69
2022/08/21 09:42:06;;;;;;;5.20;3.73;;;;;;;32.34;29.87;101115.22;4940460;29;20272;-68
2022/08/21 09:44:38;;;;;;;9.00;3.70;;;;;;;32.57;30.22;101108.94;4940153;29;20460;-69
2022/08/21 09:47:04;;;;;;;5.30;3.50;;;;;;;31.73;31.02;101122.44;4940268;29;20465;-69
2022/08/21 09:49:32;;;;;;;7.13;3.50;;;;;;;32.78;29.27;101123.59;4940320;29;20854;-69
2022/08/21 09:51:58;;;;;;;5.53;3.60;;;;;;;32.47;29.76;101123.25;4940411;29;20547;-69
2022/08/21 09:54:31;;;;;;;8.60;3.87;;;;;;;32.35;30.12;101117.84;4923726;29;20513;-69
2022/08/21 09:59:53;;;;;;;4.33;3.47;;;;;;;32.53;29.07;101120.94;4940206;29;20420;-70
2022/08/21 10:02:25;;;;;;;5.83;3.83;;;;;;;31.78;30.50;101122.06;4940286;29;20884;-71
2022/08/21 10:05:14;;;;;;;4.90;3.80;;;;;;;32.28;29.99;101121.13;4940202;29;20873;-70
2022/08/21 10:07:40;;;;;;;4.93;3.97;;;;;;;33.12;29.22;101118.22;4933102;29;20469;-70
2022/08/21 10:10:18;;;;;;;6.43;4.17;;;;;;;31.28;31.38;101119.38;4943805;29;20465;-68
2022/08/21 10:13:17;;;;;;;6.70;3.70;;;;;;;31.15;31.34;101119.41;4943706;29;20308;-68
2022/08/21 10:15:58;;;;;;;7.00;4.20;;;;;;;32.43;30.04;101106.44;4943588;29;20687;-69
2022/08/21 10:18:38;;;;;;;7.80;3.30;;;;;;;32.14;30.49;101112.22;4927333;29;20512;-69
2022/08/21 10:21:15;;;;;;;5.47;3.37;;;;;;;33.31;28.96;101104.97;4927206;29;20531;-69
2022/08/21 10:23:59;;;;;;;4.90;3.50;;;;;;;32.33;29.74;101108.16;4943539;29;20791;-69
2022/08/21 10:26:27;;;;;;;6.00;3.93;;;;;;;31.84;30.94;101110.84;4943458;29;20488;-68
2022/08/21 10:29:10;;;;;;;5.60;3.50;;;;;;;32.31;29.83;101112.78;4943938;29;20468;-70
2022/08/21 10:31:51;;;;;;;7.67;3.70;;;;;;;31.55;30.92;101113.84;4927209;29;20441;-69
2022/08/21 10:34:49;;;;;;;5.90;3.53;;;;;;;32.21;30.46;101109.94;4943346;29;20444;-69
2022/08/21 10:37:15;;;;;;;5.07;3.30;;;;;;;33.17;28.53;101103.34;4926985;29;20421;-69
2022/08/21 10:40:10;;;;;;;6.43;3.50;;;;;;;31.68;31.01;101107.56;4943394;29;20645;-70
2022/08/21 10:42:46;;;;;;;8.67;3.67;;;;;;;30.93;31.79;101114.66;4943259;29;20181;-71
2022/08/21 10:45:30;;;;;;;5.07;3.43;;;;;;;32.93;29.26;101100.78;4943247;29;20849;-70
2022/08/21 10:47:59;;;;;;;5.10;3.40;;;;;;;33.69;27.33;101108.22;4943143;29;20536;-69
2022/08/21 10:50:43;;;;;;;4.40;3.23;;;;;;;32.90;28.04;101103.72;4926666;29;20414;-70
2022/08/21 10:53:22;;;;;;;6.50;3.40;;;;;;;32.19;29.19;101109.19;4943053;29;20419;-70
2022/08/21 10:56:02;;;;;;;5.47;4.17;;;;;;;32.64;28.94;101108.44;4926786;29;20417;-71
2022/08/21 10:58:38;;;;;;;4.07;3.10;;;;;;;31.58;29.48;101110.03;4926617;29;20546;-69
2022/08/21 11:01:14;;;;;;;4.27;3.00;;;;;;;32.87;28.16;101107.53;4926752;29;20417;-69
2022/08/21 11:03:45;;;;;;;5.47;3.43;;;;;;;32.56;27.37;101106.34;4942914;29;20444;-69
2022/08/21 11:06:13;;;;;;;4.50;3.13;;;;;;;31.98;28.05;101114.34;4943099;29;20464;-69
2022/08/21 11:08:41;;;;;;;3.43;3.10;;;;;;;32.65;27.43;101110.16;4942962;29;20468;-69
2022/08/21 11:11:15;;;;;;;3.90;3.50;;;;;;;31.39;27.60;101122.19;4926314;29;20414;-69
2022/08/21 11:13:51;;;;;;;5.87;3.47;;;;;;;30.60;28.76;101118.75;4926098;29;20417;-69
2022/08/21 11:16:24;;;;;;;5.40;3.77;;;;;;;31.22;27.61;101119.84;4942508;29;20409;-69
2022/08/21 11:18:57;;;;;;;5.90;3.77;;;;;;;30.02;28.91;101113.63;4925748;29;20405;-69
2022/08/21 11:21:38;;;;;;;6.60;4.17;;;;;;;30.20;29.46;101119.63;4925909;29;20413;-70
2022/08/21 11:24:17;;;;;;;4.57;3.23;;;;;;;29.28;31.12;101125.59;4925905;29;20465;-69
2022/08/21 11:26:51;;;;;;;5.53;3.40;;;;;;;29.93;30.39;101116.06;4941878;29;20464;-69
2022/08/21 11:29:24;;;;;;;3.90;3.10;;;;;;;29.66;30.15;101122.25;4926012;29;20531;-69
2022/08/21 11:32:12;;;;;;;6.10;3.23;;;;;;;29.85;29.90;101114.75;4942343;29;20420;-68
2022/08/21 11:34:47;;;;;;;4.97;3.63;;;;;;;30.48;29.53;101116.91;4941463;29;20440;-69